Time;durP1;ratioP1;P1;durP2;ratioP2;P2;SDS_P1;SDS_P2;PMS_P1;PMS_P2;Temp;Humidity;BMP_temperature;BMP_pressure;BME280_temperature;BME280_humidity;BME280_pressure;Samples;Min_cycle;Max_cycle;Signal;HPM_P1;HPM_P2
2022/08/27 04:16:29;;;;;;;7.93;5.25;;;;;;;21.16;69.90;100597.84;2123172;27;20104;-65
2022/08/27 04:17:30;;;;;;;9.13;5.47;;;;;;;21.23;69.60;100592.56;2111790;28;20039;-66
2022/08/27 04:18:34;;;;;;;8.18;5.20;;;;;;;21.31;69.42;100594.31;2120803;27;20053;-66
2022/08/27 04:19:36;;;;;;;11.85;5.53;;;;;;;21.42;69.44;100584.50;2111302;28;20034;-66
2022/08/27 04:20:38;;;;;;;10.27;5.97;;;;;;;21.50;69.15;100596.41;2095259;28;20033;-66
2022/08/27 04:21:42;;;;;;;9.10;5.90;;;;;;;21.54;68.46;100600.06;2103312;28;20044;-66
2022/08/27 04:22:44;;;;;;;7.97;5.13;;;;;;;21.60;67.95;100589.66;2095174;28;20041;-66
2022/08/27 04:23:49;;;;;;;8.45;4.95;;;;;;;21.67;67.59;100589.81;2103258;28;20395;-66
2022/08/27 04:24:54;;;;;;;13.18;5.57;;;;;;;21.74;67.52;100601.72;2096031;28;20037;-66
2022/08/27 04:25:58;;;;;;;11.07;5.20;;;;;;;21.79;66.86;100602.63;2103742;28;20044;-66
2022/08/27 04:27:05;;;;;;;11.77;5.50;;;;;;;21.86;66.72;100597.31;2112699;28;20039;-65
2022/08/27 04:28:08;;;;;;;12.43;5.35;;;;;;;21.96;66.59;100608.53;2110172;28;20166;-66
2022/08/27 04:29:13;;;;;;;11.30;5.28;;;;;;;22.08;66.48;100596.69;2111490;28;20040;-66
2022/08/27 04:30:18;;;;;;;14.00;5.30;;;;;;;22.18;66.31;100592.63;2119894;28;20149;-66
2022/08/27 04:31:22;;;;;;;9.63;5.20;;;;;;;22.20;65.87;100595.81;2118905;28;20043;-66
2022/08/27 04:32:30;;;;;;;7.85;5.07;;;;;;;22.30;65.63;100591.72;2111865;28;20039;-66
2022/08/27 04:33:32;;;;;;;11.60;5.47;;;;;;;22.40;65.54;100589.22;2119226;28;20027;-66
2022/08/27 04:34:36;;;;;;;10.13;5.43;;;;;;;22.42;65.24;100586.94;2086537;28;20033;-66
2022/08/27 04:35:39;;;;;;;7.47;4.95;;;;;;;22.46;65.16;100586.22;2096022;28;20516;-66
2022/08/27 04:36:41;;;;;;;11.55;5.70;;;;;;;22.57;64.92;100588.03;2111979;28;20683;-66
2022/08/27 04:37:48;;;;;;;12.63;5.13;;;;;;;22.64;64.36;100587.38;2103424;28;20043;-66
2022/08/27 04:38:52;;;;;;;11.57;5.53;;;;;;;22.69;64.25;100595.31;2121089;27;20047;-66
2022/08/27 04:39:55;;;;;;;9.32;5.30;;;;;;;22.79;64.06;100588.47;2108964;28;20119;-67
2022/08/27 04:41:21;;;;;;;9.18;5.35;;;;;;;22.89;64.02;100596.91;2088065;28;20047;-66
2022/08/27 04:42:23;;;;;;;15.30;5.47;;;;;;;23.00;63.86;100599.09;2094672;28;20039;-66
2022/08/27 04:43:28;;;;;;;14.45;5.50;;;;;;;23.05;63.55;100596.88;2094892;28;20037;-66
2022/08/27 04:44:37;;;;;;;12.27;5.55;;;;;;;23.11;63.15;100597.38;2104695;28;20036;-67
2022/08/27 04:45:43;;;;;;;11.38;5.30;;;;;;;23.18;63.08;100607.69;2111395;28;20035;-66
2022/08/27 04:46:47;;;;;;;16.15;5.65;;;;;;;23.31;62.98;100600.88;2103226;28;20380;-66
2022/08/27 04:47:52;;;;;;;13.75;5.63;;;;;;;23.38;62.98;100594.72;2103148;28;20427;-66
2022/08/27 04:48:58;;;;;;;15.63;5.50;;;;;;;23.49;62.84;100601.22;2104250;28;20500;-66
2022/08/27 04:50:02;;;;;;;13.10;5.60;;;;;;;23.56;62.02;100598.56;2103201;28;20043;-67
2022/08/27 04:51:05;;;;;;;9.90;4.80;;;;;;;23.60;61.58;100594.72;2105184;28;20039;-66
2022/08/27 04:52:09;;;;;;;14.45;5.72;;;;;;;23.63;61.32;100598.69;2111608;28;20035;-66
2022/08/27 04:53:19;;;;;;;11.70;5.18;;;;;;;23.67;61.18;100596.78;2109873;28;20039;-67
2022/08/27 04:54:23;;;;;;;;;;;;;;;23.76;61.10;100586.38;2103835;28;20039;-66
2022/08/27 04:55:25;;;;;;;16.95;5.68;;;;;;;23.84;60.92;100592.03;2105618;28;19922;-66
2022/08/27 04:56:28;;;;;;;13.65;5.93;;;;;;;23.91;60.69;100592.13;2103101;28;20041;-67
2022/08/27 04:57:33;;;;;;;12.27;5.68;;;;;;;23.95;59.93;100598.47;2103545;28;20558;-66
2022/08/27 04:58:38;;;;;;;13.60;5.18;;;;;;;24.04;59.87;100597.03;2103201;28;20040;-67
2022/08/27 04:59:40;;;;;;;11.13;6.20;;;;;;;24.06;59.55;100596.69;2103813;28;20040;-66
2022/08/27 05:00:44;;;;;;;13.30;5.78;;;;;;;24.13;59.43;100598.75;2103056;28;20040;-66
2022/08/27 05:01:49;;;;;;;11.93;5.75;;;;;;;24.18;59.58;100590.97;2104036;28;20044;-66
2022/08/27 05:02:53;;;;;;;15.63;4.90;;;;;;;24.20;58.92;100599.63;2103149;28;20044;-67
2022/08/27 05:03:57;;;;;;;12.98;5.38;;;;;;;24.26;58.75;100592.66;2094808;28;20052;-67
2022/08/27 05:04:59;;;;;;;11.50;5.20;;;;;;;24.37;58.23;100603.00;2086399;28;20432;-67
2022/08/27 05:06:05;;;;;;;11.05;4.88;;;;;;;24.34;57.99;100603.75;2089194;28;20064;-66
2022/08/27 05:07:10;;;;;;;13.38;5.47;;;;;;;24.41;57.94;100609.34;2103134;28;20036;-66
2022/08/27 05:08:12;;;;;;;10.00;5.10;;;;;;;24.49;57.86;100608.31;2102819;28;20040;-66
2022/08/27 05:09:20;;;;;;;8.40;5.10;;;;;;;24.49;57.55;100600.06;2086539;28;20048;-67
2022/08/27 05:10:22;;;;;;;11.02;4.82;;;;;;;24.57;57.30;100599.00;2088156;28;20365;-66
2022/08/27 05:11:31;;;;;;;9.38;4.43;;;;;;;24.58;57.62;100597.03;2094885;28;20036;-67
2022/08/27 05:12:36;;;;;;;8.18;5.10;;;;;;;24.75;57.67;100591.00;2090924;28;20060;-66
2022/08/27 05:13:38;;;;;;;14.45;5.18;;;;;;;24.88;57.11;100589.56;2095231;28;20035;-67
2022/08/27 05:14:41;;;;;;;16.48;6.50;;;;;;;25.01;57.01;100590.13;2102898;28;20550;-66
2022/08/27 05:15:48;;;;;;;8.82;5.13;;;;;;;25.13;57.26;100606.41;2091823;28;20045;-66
2022/08/27 05:16:53;;;;;;;13.88;5.80;;;;;;;25.10;56.21;100592.56;2095951;28;20036;-66
2022/08/27 05:17:59;;;;;;;8.43;5.18;;;;;;;25.24;56.31;100595.50;2094385;28;20049;-66
2022/08/27 05:19:04;;;;;;;7.43;5.20;;;;;;;25.33;55.86;100598.72;2074648;28;20477;-65
2022/08/27 05:20:08;;;;;;;17.60;4.95;;;;;;;25.43;55.59;100598.03;2083164;28;20037;-67
2022/08/27 05:21:21;;;;;;;10.00;5.03;;;;;;;25.48;55.68;100596.13;2082681;28;20060;-70
2022/08/27 05:22:29;;;;;;;8.85;5.05;;;;;;;25.62;55.67;100599.00;2095859;28;20052;-67
2022/08/27 05:23:34;;;;;;;10.27;4.97;;;;;;;25.74;55.07;100595.19;2085872;28;20037;-66
2022/08/27 05:24:39;;;;;;;11.43;4.93;;;;;;;25.81;55.11;100587.78;2079113;28;20052;-67
2022/08/27 05:25:46;;;;;;;10.15;5.30;;;;;;;25.96;54.53;100594.19;2090320;28;20041;-67
2022/08/27 05:26:51;;;;;;;8.95;5.20;;;;;;;26.03;53.88;100590.69;2101886;28;20024;-67
2022/08/27 05:27:55;;;;;;;10.32;5.20;;;;;;;26.11;54.03;100595.09;2080159;28;20048;-66
2022/08/27 05:29:00;;;;;;;10.60;5.07;;;;;;;26.14;53.80;100596.31;2081126;28;20040;-66
2022/08/27 05:30:11;;;;;;;11.93;5.45;;;;;;;26.23;54.06;100594.78;2087996;28;20037;-66
2022/08/27 05:31:18;;;;;;;11.00;5.25;;;;;;;26.21;53.13;100590.81;2080496;28;20040;-66
2022/08/27 05:32:22;;;;;;;10.90;5.78;;;;;;;26.31;53.13;100590.09;2070740;28;20033;-66
2022/08/27 05:33:24;;;;;;;14.27;5.78;;;;;;;26.27;53.20;100592.03;2073167;28;20038;-67
2022/08/27 05:34:26;;;;;;;9.52;5.35;;;;;;;26.36;52.86;100586.97;2088787;28;20515;-67
2022/08/27 05:35:39;;;;;;;11.32;5.28;;;;;;;26.43;52.52;100586.22;2077878;28;20037;-67
2022/08/27 05:36:45;;;;;;;10.70;5.20;;;;;;;26.45;52.79;100584.69;2075662;28;20048;-65
2022/08/27 05:37:50;;;;;;;15.48;5.80;;;;;;;26.50;52.99;100584.31;2080951;28;20052;-67
2022/08/27 05:38:58;;;;;;;12.45;5.80;;;;;;;26.55;52.67;100589.47;2072411;28;20046;-67
2022/08/27 05:40:03;;;;;;;18.15;6.35;;;;;;;26.73;52.49;100586.00;2072154;28;20048;-67
2022/08/27 05:41:13;;;;;;;13.90;5.38;;;;;;;26.75;51.81;100589.16;2080852;28;20048;-67
2022/08/27 05:42:15;;;;;;;15.05;5.55;;;;;;;26.85;51.75;100587.63;2088980;28;20024;-67
2022/08/27 05:43:17;;;;;;;10.10;5.03;;;;;;;26.99;51.38;100582.94;2088572;28;20056;-67
2022/08/27 05:44:25;;;;;;;14.20;6.13;;;;;;;27.11;51.31;100583.75;2088608;28;20472;-67
2022/08/27 05:45:31;;;;;;;11.77;5.82;;;;;;;27.15;50.66;100587.34;2089529;28;20048;-67
2022/08/27 05:46:40;;;;;;;10.65;5.28;;;;;;;27.25;50.60;100587.38;2088950;28;20047;-67
2022/08/27 05:47:47;;;;;;;11.00;4.95;;;;;;;27.35;50.46;100596.84;2081658;28;20060;-67
2022/08/27 05:48:54;;;;;;;10.40;5.38;;;;;;;27.44;49.88;100594.50;2080371;28;20049;-68
2022/08/27 05:49:57;;;;;;;9.90;4.93;;;;;;;27.52;50.02;100597.25;2081572;28;20053;-68
2022/08/27 05:51:08;;;;;;;10.38;5.18;;;;;;;27.63;49.54;100587.00;2081874;28;20033;-68
2022/08/27 05:52:15;;;;;;;10.18;5.22;;;;;;;27.74;49.83;100596.06;2096930;28;20052;-68
2022/08/27 05:53:20;;;;;;;10.90;5.60;;;;;;;27.88;49.47;100595.31;2093879;28;20699;-68
2022/08/27 05:54:30;;;;;;;12.68;5.35;;;;;;;28.01;49.21;100587.41;2088554;28;20045;-69
2022/08/27 05:55:44;;;;;;;8.45;5.05;;;;;;;28.13;48.80;100598.06;2091636;28;20044;-68
2022/08/27 05:56:49;;;;;;;10.40;5.20;;;;;;;28.23;48.20;100591.72;2088854;28;20041;-68
2022/08/27 05:57:54;;;;;;;7.57;5.32;;;;;;;28.39;48.02;100592.06;2088790;28;20045;-68
2022/08/27 06:01:48;;;;;;;11.77;5.07;;;;;;;28.77;47.06;100592.34;2089497;28;20507;-68
2022/08/27 06:02:52;;;;;;;10.00;5.05;;;;;;;28.89;46.54;100591.13;2088611;28;20060;-68
2022/08/27 06:04:01;;;;;;;14.52;5.13;;;;;;;29.01;46.35;100587.16;2080656;28;20041;-68
2022/08/27 06:05:09;;;;;;;15.20;5.53;;;;;;;29.20;46.32;100591.38;2073457;28;20061;-68
2022/08/27 06:06:11;;;;;;;10.43;5.78;;;;;;;29.42;46.04;100592.03;2078511;28;20029;-68
2022/08/27 06:07:15;;;;;;;15.10;4.82;;;;;;;29.47;45.53;100589.59;2087191;28;20044;-68
2022/08/27 06:08:20;;;;;;;11.50;4.30;;;;;;;29.65;45.04;100589.50;2086497;28;20040;-68
2022/08/27 06:09:27;;;;;;;12.02;4.88;;;;;;;29.79;44.90;100594.94;2073788;28;20674;-68
2022/08/27 06:10:29;;;;;;;12.85;5.72;;;;;;;29.90;44.51;100588.50;2071110;28;20045;-67
2022/08/27 06:11:31;;;;;;;10.88;5.78;;;;;;;29.99;44.35;100591.56;2064344;28;20041;-68
2022/08/27 06:12:37;;;;;;;10.60;5.85;;;;;;;30.11;44.33;100591.06;2065638;28;20042;-68
2022/08/27 06:13:41;;;;;;;10.40;5.05;;;;;;;30.28;44.37;100589.31;2065769;28;20397;-68
2022/08/27 06:15:35;;;;;;;14.95;4.88;;;;;;;30.51;43.20;100590.66;2115431;27;20110;-68
2022/08/27 06:16:44;;;;;;;11.95;5.05;;;;;;;30.66;42.67;100587.28;2095845;28;20043;-65
2022/08/27 06:17:46;;;;;;;10.75;4.85;;;;;;;30.71;42.14;100586.84;2100262;28;20055;-68
2022/08/27 06:18:49;;;;;;;14.98;5.20;;;;;;;30.83;42.60;100587.50;2038592;28;20094;-82
2022/08/27 06:19:56;;;;;;;15.43;5.50;;;;;;;30.98;42.22;100582.53;2094414;28;20123;-81
2022/08/27 06:21:00;;;;;;;10.98;4.75;;;;;;;31.29;41.67;100583.28;2100233;28;20524;-79
2022/08/27 06:22:06;;;;;;;7.22;5.43;;;;;;;31.32;41.11;100586.00;2101865;28;20043;-74
2022/08/27 06:23:11;;;;;;;10.52;5.35;;;;;;;31.43;40.90;100591.41;2099932;28;20047;-74
2022/08/27 06:24:16;;;;;;;15.13;5.22;;;;;;;31.43;40.30;100583.09;2107527;27;20028;-73
2022/08/27 06:25:21;;;;;;;15.23;5.93;;;;;;;31.65;40.47;100585.50;2105796;28;20039;-75
2022/08/27 06:26:29;;;;;;;11.13;4.95;;;;;;;31.74;39.92;100580.19;2091786;28;20028;-74
2022/08/27 06:27:37;;;;;;;6.63;4.68;;;;;;;32.13;39.89;100589.88;2091275;28;20743;-76
2022/08/27 06:28:43;;;;;;;9.52;5.43;;;;;;;32.23;39.05;100588.91;2099846;28;20039;-70
2022/08/27 06:29:52;;;;;;;9.75;4.97;;;;;;;32.87;38.27;100587.59;2106261;28;20039;-71
2022/08/27 06:31:23;;;;;;;12.10;5.30;;;;;;;33.37;37.52;100588.50;2090175;28;20048;-70
2022/08/27 06:32:33;;;;;;;14.75;7.03;;;;;;;33.82;36.85;100580.22;2090139;28;20035;-71
2022/08/27 06:33:37;;;;;;;9.02;5.10;;;;;;;34.11;36.40;100582.25;2082192;28;20029;-71
2022/08/27 06:34:46;;;;;;;10.70;5.60;;;;;;;34.29;36.00;100587.38;2090894;28;20677;-71
2022/08/27 06:35:49;;;;;;;16.50;5.38;;;;;;;34.32;35.11;100584.47;2106133;28;20491;-72
2022/08/27 06:36:53;;;;;;;7.88;4.93;;;;;;;34.68;34.28;100586.28;2097562;28;20028;-73
2022/08/27 06:37:57;;;;;;;10.63;5.53;;;;;;;35.11;34.63;100584.22;2089105;28;20020;-72
2022/08/27 06:39:04;;;;;;;11.07;5.05;;;;;;;35.49;34.08;100590.53;2090485;28;20024;-71
2022/08/27 06:40:12;;;;;;;10.75;5.03;;;;;;;35.80;32.95;100589.16;2077872;28;20037;-72
2022/08/27 06:41:19;;;;;;;12.13;5.13;;;;;;;36.02;32.88;100589.19;2093026;28;20032;-72
2022/08/27 06:42:22;;;;;;;11.70;5.30;;;;;;;35.84;32.68;100576.59;2097720;28;20032;-71
2022/08/27 06:43:28;;;;;;;10.68;5.03;;;;;;;36.11;32.89;100584.47;2097081;28;20791;-71
2022/08/27 06:44:32;;;;;;;8.80;5.07;;;;;;;36.35;32.16;100587.63;2096699;28;20040;-73
2022/08/27 06:45:38;;;;;;;10.68;4.75;;;;;;;36.64;31.94;100586.59;2103652;28;20047;-72
2022/08/27 06:46:42;;;;;;;9.77;5.20;;;;;;;36.69;30.78;100590.81;2096842;28;20032;-72
2022/08/27 06:47:44;;;;;;;8.65;5.13;;;;;;;37.16;31.01;100584.97;2080117;28;20037;-74
2022/08/27 06:48:49;;;;;;;7.75;5.30;;;;;;;37.35;30.14;100583.00;2080658;28;20155;-70
2022/08/27 06:49:54;;;;;;;10.13;5.45;;;;;;;37.53;30.18;100585.88;2103885;28;20058;-71
2022/08/27 06:50:58;;;;;;;16.25;5.18;;;;;;;37.72;30.20;100594.31;2104198;28;21672;-70
2022/08/27 06:52:07;;;;;;;10.88;5.60;;;;;;;37.65;30.10;100587.00;2104389;28;20537;-74
2022/08/27 06:53:13;;;;;;;8.25;5.43;;;;;;;38.01;29.98;100586.25;2089454;28;20020;-74
2022/08/27 06:54:18;;;;;;;10.00;5.30;;;;;;;38.59;29.14;100580.88;2095034;28;20033;-73
2022/08/27 06:55:23;;;;;;;10.90;5.10;;;;;;;39.00;28.80;100587.00;2097976;28;20029;-75
2022/08/27 06:56:25;;;;;;;13.30;5.72;;;;;;;39.07;28.72;100579.03;2096025;28;20040;-67
2022/08/27 06:57:34;;;;;;;11.85;4.97;;;;;;;39.39;27.90;100583.09;2103708;28;20399;-73
2022/08/27 06:58:36;;;;;;;8.57;5.30;;;;;;;39.42;27.75;100575.75;2088665;28;20674;-71
2022/08/27 06:59:38;;;;;;;11.18;5.30;;;;;;;39.61;27.43;100573.56;2079835;28;20100;-72
2022/08/27 07:00:43;;;;;;;9.20;5.28;;;;;;;39.38;27.67;100580.78;2086915;28;20049;-71
2022/08/27 07:01:52;;;;;;;9.98;5.00;;;;;;;38.91;28.33;100585.81;2088402;28;20040;-69
2022/08/27 07:03:05;;;;;;;10.13;5.68;;;;;;;39.21;27.43;100583.16;2103644;28;20334;-68
2022/08/27 07:04:12;;;;;;;9.40;5.47;;;;;;;39.69;27.23;100577.56;2091925;28;20032;-71
2022/08/27 07:05:23;;;;;;;8.20;5.18;;;;;;;39.81;26.79;100585.00;2094882;28;20048;-70
2022/08/27 07:06:31;;;;;;;8.93;5.28;;;;;;;40.12;27.12;100581.00;2094907;28;20534;-71
2022/08/27 07:07:43;;;;;;;9.20;4.80;;;;;;;40.26;27.23;100583.09;2094201;27;20062;-70
2022/08/27 07:08:59;;;;;;;15.68;4.95;;;;;;;40.61;26.24;100582.44;2100907;27;20052;-70
2022/08/27 07:10:02;;;;;;;6.28;4.85;;;;;;;40.68;25.55;100582.03;2086969;28;20083;-69
2022/08/27 07:11:16;;;;;;;17.23;5.95;;;;;;;40.91;26.09;100579.56;2089153;28;20754;-70
2022/08/27 07:12:29;;;;;;;8.23;5.20;;;;;;;41.20;26.11;100582.31;2104046;28;20379;-70
2022/08/27 07:13:38;;;;;;;11.52;5.10;;;;;;;41.43;26.17;100588.28;2096646;28;20044;-69
2022/08/27 07:14:46;;;;;;;;;;;;;;;41.58;25.53;100589.00;2104316;28;20066;-69
2022/08/27 07:15:54;;;;;;;11.07;5.72;;;;;;;41.80;25.53;100587.72;2105663;27;20667;-69
2022/08/27 07:17:00;;;;;;;12.07;5.22;;;;;;;42.00;24.51;100584.94;2086450;28;20044;-71
2022/08/27 07:18:05;;;;;;;7.78;4.72;;;;;;;42.01;24.67;100575.16;2081795;28;20385;-69
2022/08/27 07:19:09;;;;;;;12.18;5.18;;;;;;;41.86;24.69;100580.09;2095976;28;20047;-70
2022/08/27 07:20:19;;;;;;;8.63;5.15;;;;;;;41.95;24.46;100585.63;2105068;28;20028;-70
2022/08/27 07:21:34;;;;;;;12.40;5.38;;;;;;;41.39;24.85;100577.19;2089520;28;20772;-70
2022/08/27 07:22:41;;;;;;;7.18;5.30;;;;;;;42.03;24.22;100589.59;2097557;28;20395;-68
2022/08/27 07:23:50;;;;;;;7.43;5.22;;;;;;;42.14;24.52;100589.69;2097736;28;20396;-68
2022/08/27 07:25:01;;;;;;;12.43;5.45;;;;;;;42.44;24.06;100578.19;2103270;28;20035;-70
2022/08/27 07:26:18;;;;;;;8.48;5.30;;;;;;;42.66;23.71;100583.25;2108420;27;20513;-69
2022/08/27 07:27:22;;;;;;;8.63;5.45;;;;;;;42.70;24.02;100577.38;2095537;28;20028;-67
2022/08/27 07:28:27;;;;;;;11.05;5.15;;;;;;;42.73;23.83;100579.22;2098001;28;20048;-68
2022/08/27 07:29:32;;;;;;;11.07;5.45;;;;;;;42.90;24.17;100584.97;2098248;28;20488;-69
2022/08/27 07:30:36;;;;;;;8.57;5.13;;;;;;;43.05;23.64;100575.06;2090247;28;20577;-66
2022/08/27 07:31:40;;;;;;;10.65;5.22;;;;;;;42.67;24.09;100581.97;2091543;28;20035;-66
2022/08/27 07:32:47;;;;;;;8.48;5.50;;;;;;;41.68;24.64;100587.63;2098476;28;20040;-66
2022/08/27 07:33:50;;;;;;;9.48;5.32;;;;;;;41.53;25.00;100577.69;2090940;28;20021;-67
2022/08/27 07:34:57;;;;;;;11.00;5.65;;;;;;;39.51;27.04;100583.34;2082826;28;20404;-66
2022/08/27 07:36:04;;;;;;;7.18;5.18;;;;;;;39.39;27.31;100588.72;2083552;28;20056;-65
2022/08/27 07:37:10;;;;;;;11.50;5.50;;;;;;;39.97;27.01;100580.97;2090616;28;20051;-66
2022/08/27 07:38:14;;;;;;;7.60;5.38;;;;;;;40.37;26.77;100584.56;2078469;28;21197;-67
2022/08/27 07:39:22;;;;;;;10.52;5.40;;;;;;;40.53;27.17;100584.84;2090139;28;20033;-67
2022/08/27 07:40:35;;;;;;;10.77;5.38;;;;;;;40.44;26.97;100584.16;2098837;28;20470;-67
2022/08/27 07:44:29;;;;;;;12.25;7.47;;;;;;;40.81;26.17;100578.13;2092783;28;20106;-67
2022/08/27 07:45:32;;;;;;;9.90;5.57;;;;;;;41.02;26.30;100573.31;2090351;28;20166;-66
2022/08/27 07:46:41;;;;;;;9.23;5.20;;;;;;;41.15;26.18;100574.56;2099482;28;20066;-63
2022/08/27 07:47:49;;;;;;;10.32;5.32;;;;;;;40.17;27.54;100577.56;2097020;28;20051;-65
2022/08/27 07:48:56;;;;;;;7.28;5.15;;;;;;;40.80;26.86;100574.53;2097890;28;20693;-62
2022/08/27 07:50:02;;;;;;;10.38;5.97;;;;;;;40.45;26.64;100575.22;2105423;27;20028;-65
2022/08/27 07:51:13;;;;;;;13.15;5.68;;;;;;;40.66;26.64;100573.28;2087781;28;20041;-64
2022/08/27 07:52:17;;;;;;;13.00;6.22;;;;;;;40.85;26.64;100571.03;2089734;27;20032;-64
2022/08/27 07:53:20;;;;;;;10.55;5.45;;;;;;;41.12;26.21;100572.75;2092948;28;20040;-65
2022/08/27 07:54:22;;;;;;;13.80;5.40;;;;;;;41.03;25.95;100575.69;2092294;28;20020;-67
2022/08/27 07:55:26;;;;;;;11.25;6.43;;;;;;;41.00;26.55;100571.00;2082420;28;20469;-67
2022/08/27 07:56:32;;;;;;;13.77;6.05;;;;;;;40.58;27.09;100571.31;2107468;28;20047;-62
2022/08/27 07:57:34;;;;;;;10.27;5.57;;;;;;;40.93;26.63;100572.19;2103541;28;20040;-68
2022/08/27 07:58:42;;;;;;;14.88;6.57;;;;;;;41.27;26.46;100574.72;2104654;28;20024;-67
2022/08/27 07:59:47;;;;;;;12.65;5.95;;;;;;;41.64;26.12;100581.38;2107529;28;20094;-67
2022/08/27 08:00:54;;;;;;;12.77;5.35;;;;;;;41.45;26.63;100580.13;2095348;28;20052;-68
2022/08/27 08:01:58;;;;;;;13.68;5.63;;;;;;;41.75;26.01;100582.81;2088042;28;20382;-67
2022/08/27 08:03:01;;;;;;;15.68;6.03;;;;;;;42.01;25.79;100580.03;2088241;28;20033;-68
2022/08/27 08:04:06;;;;;;;16.08;5.93;;;;;;;42.30;25.57;100579.06;2095977;28;20479;-69
2022/08/27 08:05:11;;;;;;;16.30;5.68;;;;;;;42.45;25.17;100579.72;2095855;28;20040;-68
2022/08/27 08:06:15;;;;;;;10.90;5.78;;;;;;;42.70;24.99;100571.72;2095134;28;20033;-68
2022/08/27 08:07:17;;;;;;;24.55;7.78;;;;;;;42.81;25.39;100578.22;2103746;28;20035;-67
2022/08/27 08:08:20;;;;;;;13.43;6.25;;;;;;;42.76;24.63;100569.72;2112519;28;20051;-68
2022/08/27 08:09:25;;;;;;;16.95;5.80;;;;;;;42.66;24.76;100576.78;2095961;28;20043;-67
2022/08/27 08:10:27;;;;;;;11.18;6.35;;;;;;;42.23;25.12;100574.63;2104220;28;20036;-67
2022/08/27 08:11:32;;;;;;;16.25;5.95;;;;;;;42.39;25.14;100564.78;2112575;28;20031;-67
2022/08/27 08:12:39;;;;;;;13.50;5.35;;;;;;;42.63;24.65;100572.94;2112504;28;20040;-67
2022/08/27 08:13:44;;;;;;;;;;;;;;;42.74;24.94;100572.28;2112460;28;20801;-68
2022/08/27 08:14:47;;;;;;;12.18;5.32;;;;;;;43.01;24.67;100570.94;2107575;28;19923;-68
2022/08/27 08:15:49;;;;;;;16.65;5.50;;;;;;;43.22;24.19;100566.69;2095289;28;20043;-68
2022/08/27 08:16:51;;;;;;;11.93;5.82;;;;;;;43.25;24.08;100568.50;2087030;28;20516;-67
2022/08/27 08:17:59;;;;;;;11.57;5.82;;;;;;;42.59;25.27;100578.03;2080101;28;20049;-67
2022/08/27 08:19:07;;;;;;;14.73;5.32;;;;;;;42.59;25.26;100578.84;2080660;28;20053;-68
2022/08/27 08:20:14;;;;;;;11.02;5.40;;;;;;;42.48;24.97;100570.25;2079632;28;20049;-67
2022/08/27 08:21:19;;;;;;;11.30;5.95;;;;;;;42.65;25.41;100569.59;2087511;28;20124;-67
2022/08/27 08:22:23;;;;;;;11.73;5.32;;;;;;;42.76;25.55;100570.50;2093145;28;20460;-67
2022/08/27 08:23:26;;;;;;;9.35;5.20;;;;;;;42.93;24.85;100567.00;2079484;28;20037;-67
2022/08/27 08:24:28;;;;;;;8.90;5.25;;;;;;;42.82;24.73;100567.72;2087640;28;20104;-67
2022/08/27 08:25:36;;;;;;;7.38;5.40;;;;;;;42.89;24.88;100570.06;2095458;28;20043;-67
2022/08/27 08:26:40;;;;;;;9.48;5.18;;;;;;;43.27;24.76;100563.13;2095713;28;20032;-67
2022/08/27 08:27:45;;;;;;;12.88;5.45;;;;;;;43.58;24.40;100569.97;2087595;28;20098;-67
2022/08/27 08:28:47;;;;;;;13.18;5.35;;;;;;;44.02;23.96;100567.81;2087484;28;20041;-67
2022/08/27 08:29:51;;;;;;;7.80;5.00;;;;;;;44.43;23.43;100567.34;2085571;28;20041;-68
2022/08/27 08:30:53;;;;;;;9.07;5.30;;;;;;;44.98;22.71;100568.59;2087369;28;20041;-67
2022/08/27 08:31:58;;;;;;;11.43;4.90;;;;;;;45.32;22.79;100563.63;2096060;28;20040;-67
2022/08/27 08:33:02;;;;;;;13.25;6.03;;;;;;;45.52;22.38;100568.22;2087363;28;20052;-67
2022/08/27 08:34:06;;;;;;;12.90;5.80;;;;;;;46.24;21.52;100569.84;2080167;28;20241;-67
2022/08/27 08:35:09;;;;;;;9.27;5.28;;;;;;;47.00;21.22;100564.56;2096369;28;20044;-67
2022/08/27 08:36:16;;;;;;;13.52;5.72;;;;;;;47.57;20.35;100567.53;2079639;28;20044;-67
2022/08/27 08:37:17;;;;;;;16.33;5.68;;;;;;;47.98;19.61;100563.59;2093642;28;20036;-67
2022/08/27 08:38:19;;;;;;;8.95;5.30;;;;;;;48.43;19.51;100569.38;2106506;28;20032;-67
2022/08/27 08:39:24;;;;;;;10.25;5.75;;;;;;;48.89;18.90;100564.41;2104310;28;20032;-67
2022/08/27 08:40:37;;;;;;;14.82;5.45;;;;;;;49.28;18.68;100570.69;2095874;28;20036;-67
2022/08/27 08:41:42;;;;;;;9.68;5.25;;;;;;;49.18;18.46;100567.47;2089200;28;20032;-67
2022/08/27 08:42:50;;;;;;;11.40;5.00;;;;;;;49.39;18.06;100571.22;2088315;28;20040;-67
2022/08/27 08:43:55;;;;;;;14.20;5.72;;;;;;;49.62;17.84;100562.19;2087736;28;20044;-67
2022/08/27 08:45:01;;;;;;;10.18;5.15;;;;;;;49.75;17.71;100567.09;2088268;28;20032;-68
2022/08/27 08:46:12;;;;;;;14.52;5.63;;;;;;;49.50;18.24;100558.00;2096194;28;20059;-67
2022/08/27 08:47:28;;;;;;;11.32;5.50;;;;;;;47.48;19.39;100559.34;2089577;28;20033;-67
2022/08/27 08:48:32;;;;;;;12.50;6.05;;;;;;;46.20;20.83;100569.38;2096675;28;20397;-67
2022/08/27 08:49:40;;;;;;;10.00;5.43;;;;;;;47.03;20.23;100565.56;2096304;28;21315;-67
2022/08/27 08:51:13;;;;;;;12.48;5.68;;;;;;;47.32;20.27;100561.09;2096638;28;20035;-67
2022/08/27 08:52:41;;;;;;;11.25;5.88;;;;;;;47.50;19.87;100568.13;2088147;28;20044;-67
2022/08/27 08:53:56;;;;;;;12.73;5.80;;;;;;;47.64;19.35;100566.13;2091654;28;20044;-67
2022/08/27 08:55:06;;;;;;;13.73;6.10;;;;;;;47.96;19.47;100561.28;2091754;28;20472;-67
2022/08/27 08:56:18;;;;;;;11.05;5.63;;;;;;;49.13;18.18;100559.81;2095228;28;20048;-67
2022/08/27 08:57:27;;;;;;;10.43;5.60;;;;;;;49.18;18.03;100556.06;2096387;28;20045;-67
2022/08/27 08:58:37;;;;;;;9.60;5.47;;;;;;;48.87;18.30;100567.06;2096529;28;20036;-67
2022/08/27 08:59:44;;;;;;;7.50;5.30;;;;;;;47.84;19.49;100565.63;2089402;28;20067;-67
2022/08/27 09:00:55;;;;;;;10.95;5.80;;;;;;;47.77;19.47;100566.25;2080747;28;20049;-67
2022/08/27 09:01:57;;;;;;;11.35;5.90;;;;;;;47.15;19.50;100569.84;2098326;28;20056;-67
2022/08/27 09:03:02;;;;;;;15.07;5.88;;;;;;;47.14;20.01;100569.06;2111511;28;20550;-67
2022/08/27 09:04:07;;;;;;;14.23;6.32;;;;;;;46.95;20.35;100570.28;2099909;28;20067;-67
2022/08/27 09:05:14;;;;;;;16.15;6.20;;;;;;;46.95;19.84;100571.06;2088232;28;20211;-67
2022/08/27 09:06:43;;;;;;;14.80;5.57;;;;;;;48.32;19.18;100563.84;2094668;28;20040;-67
2022/08/27 09:07:59;;;;;;;21.95;6.25;;;;;;;48.59;18.56;100563.94;2088105;28;20496;-67
2022/08/27 09:09:18;;;;;;;9.27;5.80;;;;;;;48.82;18.58;100564.28;2090525;28;20048;-67
2022/08/27 09:10:41;;;;;;;9.55;5.75;;;;;;;47.98;18.79;100563.59;2096367;28;20033;-67
2022/08/27 09:12:00;;;;;;;9.85;5.90;;;;;;;45.98;20.73;100575.97;2091126;28;20052;-67
2022/08/27 09:13:06;;;;;;;11.95;5.95;;;;;;;44.23;22.62;100574.78;2088136;28;20029;-66
2022/08/27 09:14:25;;;;;;;11.98;6.00;;;;;;;44.75;22.41;100574.31;2082505;28;20424;-67
2022/08/27 09:15:33;;;;;;;12.63;6.25;;;;;;;44.90;22.10;100576.09;2082735;28;20045;-67
2022/08/27 09:16:41;;;;;;;;;;;;;;;44.33;22.40;100572.47;2082965;28;20052;-67
2022/08/27 09:17:50;;;;;;;13.90;7.20;;;;;;;43.74;23.24;100576.97;2096288;28;19927;-67
2022/08/27 09:18:52;;;;;;;11.88;5.93;;;;;;;42.78;24.57;100578.47;2088933;28;20048;-67
2022/08/27 09:19:54;;;;;;;20.02;6.47;;;;;;;41.37;25.83;100578.97;2096284;28;20040;-67
2022/08/27 09:21:21;;;;;;;12.30;5.88;;;;;;;39.57;28.15;100581.44;2096915;28;20059;-67
2022/08/27 09:22:23;;;;;;;15.48;6.38;;;;;;;38.16;29.96;100580.00;2103193;28;20038;-67
2022/08/27 09:23:32;;;;;;;17.45;6.70;;;;;;;37.04;31.71;100578.22;2104563;28;20660;-67
2022/08/27 09:25:06;;;;;;;11.88;6.47;;;;;;;36.31;32.96;100586.19;2097597;28;20028;-67
2022/08/27 09:26:20;;;;;;;15.93;6.88;;;;;;;35.31;34.57;100592.34;2101200;28;20055;-67
2022/08/27 09:27:23;;;;;;;13.32;6.50;;;;;;;34.58;35.92;100593.72;2104941;28;20040;-67
2022/08/27 09:29:54;;;;;;;11.07;6.10;;;;;;;34.12;37.44;100584.63;2093128;28;20048;-67
2022/08/27 09:31:03;;;;;;;13.45;6.72;;;;;;;33.38;39.24;100585.25;2104305;28;20827;-67